sensor_id;sensor_type;location;lat;lon;timestamp;pressure;altitude;pressure_sealevel;temperature;humidity
64158;BME280;50449;51.528;5.076;2023-05-02T00:01:31;101908.31;;;20.40;45.95
64158;BME280;50449;51.528;5.076;2023-05-02T00:03:57;101914.91;;;20.39;46.30
64158;BME280;50449;51.528;5.076;2023-05-02T00:06:22;101918.19;;;20.36;46.46
64158;BME280;50449;51.528;5.076;2023-05-02T00:08:48;101919.31;;;20.35;46.11
64158;BME280;50449;51.528;5.076;2023-05-02T00:11:14;101929.72;;;20.32;45.98
64158;BME280;50449;51.528;5.076;2023-05-02T00:13:39;101926.44;;;20.30;46.45
64158;BME280;50449;51.528;5.076;2023-05-02T00:16:05;101930.28;;;20.29;46.06
64158;BME280;50449;51.528;5.076;2023-05-02T00:18:31;101941.53;;;20.28;46.09
64158;BME280;50449;51.528;5.076;2023-05-02T00:20:56;101942.66;;;20.27;46.34
64158;BME280;50449;51.528;5.076;2023-05-02T00:23:22;101937.72;;;20.24;46.49
64158;BME280;50449;51.528;5.076;2023-05-02T00:25:48;101947.34;;;20.21;46.04
64158;BME280;50449;51.528;5.076;2023-05-02T00:28:14;101951.16;;;20.20;46.06
64158;BME280;50449;51.528;5.076;2023-05-02T00:30:45;101947.06;;;20.18;46.13
64158;BME280;50449;51.528;5.076;2023-05-02T00:33:11;101947.34;;;20.16;46.22
64158;BME280;50449;51.528;5.076;2023-05-02T00:35:38;101946.81;;;20.14;46.29
64158;BME280;50449;51.528;5.076;2023-05-02T00:38:03;101951.47;;;20.14;46.10
64158;BME280;50449;51.528;5.076;2023-05-02T00:40:30;101945.44;;;20.12;46.02
64158;BME280;50449;51.528;5.076;2023-05-02T00:42:55;101952.00;;;20.10;45.90
64158;BME280;50449;51.528;5.076;2023-05-02T00:45:21;101960.78;;;20.07;46.45
64158;BME280;50449;51.528;5.076;2023-05-02T00:47:46;101953.94;;;20.05;46.55
64158;BME280;50449;51.528;5.076;2023-05-02T00:50:12;101955.06;;;20.04;46.03
64158;BME280;50449;51.528;5.076;2023-05-02T00:52:37;101955.31;;;20.02;46.48
64158;BME280;50449;51.528;5.076;2023-05-02T00:55:03;101960.00;;;20.02;45.95
64158;BME280;50449;51.528;5.076;2023-05-02T00:57:28;101958.63;;;19.99;46.51
64158;BME280;50449;51.528;5.076;2023-05-02T00:59:54;101964.38;;;19.98;46.10
64158;BME280;50449;51.528;5.076;2023-05-02T01:02:39;101967.41;;;19.96;46.24
64158;BME280;50449;51.528;5.076;2023-05-02T01:11:02;101961.94;;;19.86;46.27
64158;BME280;50449;51.528;5.076;2023-05-02T01:13:33;101953.16;;;19.84;46.48
64158;BME280;50449;51.528;5.076;2023-05-02T01:16:00;101951.50;;;19.83;46.63
64158;BME280;50449;51.528;5.076;2023-05-02T01:18:30;101947.13;;;19.82;46.21
64158;BME280;50449;51.528;5.076;2023-05-02T01:21:05;101950.13;;;19.80;46.24
64158;BME280;50449;51.528;5.076;2023-05-02T01:28:56;101943.00;;;19.74;46.20
64158;BME280;50449;51.528;5.076;2023-05-02T01:31:24;101939.72;;;19.72;46.51
64158;BME280;50449;51.528;5.076;2023-05-02T01:33:53;101949.88;;;19.72;46.06
64158;BME280;50449;51.528;5.076;2023-05-02T01:36:19;101943.84;;;19.70;46.40
64158;BME280;50449;51.528;5.076;2023-05-02T01:38:46;101944.94;;;19.69;46.61
64158;BME280;50449;51.528;5.076;2023-05-02T01:41:14;101952.34;;;19.68;46.16
64158;BME280;50449;51.528;5.076;2023-05-02T01:43:41;101949.03;;;19.66;46.59
64158;BME280;50449;51.528;5.076;2023-05-02T01:46:08;101951.22;;;19.64;46.59
64158;BME280;50449;51.528;5.076;2023-05-02T01:48:34;101951.47;;;19.62;46.51
64158;BME280;50449;51.528;5.076;2023-05-02T01:51:01;101949.84;;;19.61;46.47
64158;BME280;50449;51.528;5.076;2023-05-02T01:53:29;101953.97;;;19.59;46.21
64158;BME280;50449;51.528;5.076;2023-05-02T01:55:58;101975.06;;;19.58;46.10
64158;BME280;50449;51.528;5.076;2023-05-02T01:58:26;101968.22;;;19.56;46.57
64158;BME280;50449;51.528;5.076;2023-05-02T02:00:54;101970.09;;;19.55;46.44
64158;BME280;50449;51.528;5.076;2023-05-02T02:03:21;101967.09;;;19.52;46.08
64158;BME280;50449;51.528;5.076;2023-05-02T02:05:48;101977.25;;;19.51;46.12
64158;BME280;50449;51.528;5.076;2023-05-02T02:08:14;101981.34;;;19.49;46.55
64158;BME280;50449;51.528;5.076;2023-05-02T02:10:41;101988.75;;;19.48;46.69
64158;BME280;50449;51.528;5.076;2023-05-02T02:13:18;101995.59;;;19.45;46.49
64158;BME280;50449;51.528;5.076;2023-05-02T02:15:48;101998.59;;;19.44;46.14
64158;BME280;50449;51.528;5.076;2023-05-02T02:18:20;102003.53;;;19.42;46.58
64158;BME280;50449;51.528;5.076;2023-05-02T02:20:49;102010.38;;;19.39;46.53
64158;BME280;50449;51.528;5.076;2023-05-02T02:23:18;102009.00;;;19.37;46.55
64158;BME280;50449;51.528;5.076;2023-05-02T02:25:45;102006.56;;;19.35;46.24
64158;BME280;50449;51.528;5.076;2023-05-02T02:28:11;102010.38;;;19.34;46.73
64158;BME280;50449;51.528;5.076;2023-05-02T02:30:37;102015.28;;;19.32;46.55
64158;BME280;50449;51.528;5.076;2023-05-02T02:33:02;102002.97;;;19.30;46.73
64158;BME280;50449;51.528;5.076;2023-05-02T02:35:36;102009.53;;;19.29;46.52
64158;BME280;50449;51.528;5.076;2023-05-02T02:38:37;102014.47;;;19.27;46.62
64158;BME280;50449;51.528;5.076;2023-05-02T02:41:22;102013.34;;;19.22;46.28
64158;BME280;50449;51.528;5.076;2023-05-02T02:49:30;102017.44;;;19.15;46.39
64158;BME280;50449;51.528;5.076;2023-05-02T02:52:10;102014.16;;;19.13;46.86
64158;BME280;50449;51.528;5.076;2023-05-02T02:54:55;102019.91;;;19.11;46.38
64158;BME280;50449;51.528;5.076;2023-05-02T02:57:27;102021.00;;;19.10;46.41
64158;BME280;50449;51.528;5.076;2023-05-02T03:00:18;102019.63;;;19.08;46.91
64158;BME280;50449;51.528;5.076;2023-05-02T03:02:46;102026.19;;;19.07;46.34
64158;BME280;50449;51.528;5.076;2023-05-02T03:05:12;102033.31;;;19.02;46.79
64158;BME280;50449;51.528;5.076;2023-05-02T03:07:39;102033.84;;;19.05;46.52
64158;BME280;50449;51.528;5.076;2023-05-02T03:10:05;102029.72;;;19.02;46.70
64158;BME280;50449;51.528;5.076;2023-05-02T03:12:31;102040.66;;;19.02;46.43
64158;BME280;50449;51.528;5.076;2023-05-02T03:16:00;102041.78;;;19.01;46.44
64158;BME280;50449;51.528;5.076;2023-05-02T03:17:55;102049.16;;;19.00;46.42
64158;BME280;50449;51.528;5.076;2023-05-02T03:20:20;102050.25;;;18.99;46.72
64158;BME280;50449;51.528;5.076;2023-05-02T03:22:46;102056.00;;;18.98;46.60
64158;BME280;50449;51.528;5.076;2023-05-02T03:25:11;102054.63;;;18.95;46.58
64158;BME280;50449;51.528;5.076;2023-05-02T03:27:37;102052.41;;;18.92;46.86
64158;BME280;50449;51.528;5.076;2023-05-02T03:30:02;102058.72;;;18.93;46.79
64158;BME280;50449;51.528;5.076;2023-05-02T03:32:28;102062.81;;;18.90;46.77
64158;BME280;50449;51.528;5.076;2023-05-02T03:34:53;102063.88;;;18.89;46.50
64158;BME280;50449;51.528;5.076;2023-05-02T03:37:22;102065.53;;;18.85;46.51
64158;BME280;50449;51.528;5.076;2023-05-02T03:39:48;102069.34;;;18.84;46.57
64158;BME280;50449;51.528;5.076;2023-05-02T03:42:13;102064.16;;;18.83;46.89
64158;BME280;50449;51.528;5.076;2023-05-02T03:44:38;102067.16;;;18.81;46.98
64158;BME280;50449;51.528;5.076;2023-05-02T03:47:04;102069.88;;;18.81;46.69
64158;BME280;50449;51.528;5.076;2023-05-02T03:49:29;102074.53;;;18.80;46.94
64158;BME280;50449;51.528;5.076;2023-05-02T03:51:55;102075.59;;;18.79;46.95
64158;BME280;50449;51.528;5.076;2023-05-02T03:54:20;102085.19;;;18.77;46.88
64158;BME280;50449;51.528;5.076;2023-05-02T03:56:46;102079.69;;;18.77;46.90
64158;BME280;50449;51.528;5.076;2023-05-02T03:59:12;102092.56;;;18.76;46.44
64158;BME280;50449;51.528;5.076;2023-05-02T04:01:38;102100.19;;;18.74;46.47
64158;BME280;50449;51.528;5.076;2023-05-02T04:04:03;102103.78;;;18.75;46.92
64158;BME280;50449;51.528;5.076;2023-05-02T04:06:29;102102.38;;;18.72;46.95
64158;BME280;50449;51.528;5.076;2023-05-02T04:08:56;102100.16;;;18.69;47.07
64158;BME280;50449;51.528;5.076;2023-05-02T04:11:22;102106.47;;;18.70;46.83
64158;BME280;50449;51.528;5.076;2023-05-02T04:13:48;102107.53;;;18.69;46.54
64158;BME280;50449;51.528;5.076;2023-05-02T04:16:13;102108.66;;;18.68;46.87
64158;BME280;50449;51.528;5.076;2023-05-02T04:18:38;102115.47;;;18.65;46.59
64158;BME280;50449;51.528;5.076;2023-05-02T04:21:06;102124.75;;;18.64;46.98
64158;BME280;50449;51.528;5.076;2023-05-02T04:23:32;102119.56;;;18.63;46.63
64158;BME280;50449;51.528;5.076;2023-05-02T04:25:57;102131.59;;;18.62;46.53
64158;BME280;50449;51.528;5.076;2023-05-02T04:28:23;102129.94;;;18.60;46.40
64158;BME280;50449;51.528;5.076;2023-05-02T04:30:49;102135.94;;;18.57;46.53
64158;BME280;50449;51.528;5.076;2023-05-02T04:33:14;102138.69;;;18.57;46.86
64158;BME280;50449;51.528;5.076;2023-05-02T04:35:40;102149.06;;;18.55;46.54
64158;BME280;50449;51.528;5.076;2023-05-02T04:38:06;102152.03;;;18.54;46.51
64158;BME280;50449;51.528;5.076;2023-05-02T04:40:32;102156.94;;;18.52;46.59
64158;BME280;50449;51.528;5.076;2023-05-02T04:42:58;102149.84;;;18.51;46.54
64158;BME280;50449;51.528;5.076;2023-05-02T04:45:24;102165.16;;;18.52;46.70
64158;BME280;50449;51.528;5.076;2023-05-02T04:47:50;102169.25;;;18.49;46.75
64158;BME280;50449;51.528;5.076;2023-05-02T04:50:15;102168.72;;;18.47;46.82
64158;BME280;50449;51.528;5.076;2023-05-02T04:52:40;102179.66;;;18.47;46.61
64158;BME280;50449;51.528;5.076;2023-05-02T04:55:06;102175.53;;;18.45;46.69
64158;BME280;50449;51.528;5.076;2023-05-02T04:57:32;102183.72;;;18.45;46.23
64158;BME280;50449;51.528;5.076;2023-05-02T04:59:57;102178.50;;;18.43;46.59
64158;BME280;50449;51.528;5.076;2023-05-02T05:02:23;102181.25;;;18.43;46.35
64158;BME280;50449;51.528;5.076;2023-05-02T05:04:50;102185.09;;;18.42;46.22
64158;BME280;50449;51.528;5.076;2023-05-02T05:07:15;102185.31;;;18.41;46.30
64158;BME280;50449;51.528;5.076;2023-05-02T05:09:40;102188.31;;;18.39;46.64
64158;BME280;50449;51.528;5.076;2023-05-02T05:12:06;102197.88;;;18.36;46.39
64158;BME280;50449;51.528;5.076;2023-05-02T05:14:32;102191.56;;;18.36;46.46
64158;BME280;50449;51.528;5.076;2023-05-02T05:16:57;102203.63;;;18.35;46.23
64158;BME280;50449;51.528;5.076;2023-05-02T05:19:23;102201.13;;;18.33;46.85
64158;BME280;50449;51.528;5.076;2023-05-02T05:21:49;102209.84;;;18.30;46.38
64158;BME280;50449;51.528;5.076;2023-05-02T05:24:15;102213.66;;;18.29;46.26
64158;BME280;50449;51.528;5.076;2023-05-02T05:26:40;102217.50;;;18.28;46.74
64158;BME280;50449;51.528;5.076;2023-05-02T05:29:06;102219.41;;;18.28;46.43
64158;BME280;50449;51.528;5.076;2023-05-02T05:31:32;102225.94;;;18.27;46.12
64158;BME280;50449;51.528;5.076;2023-05-02T05:33:57;102227.28;;;18.24;46.35
64158;BME280;50449;51.528;5.076;2023-05-02T05:36:23;102227.56;;;18.23;46.36
64158;BME280;50449;51.528;5.076;2023-05-02T05:38:49;102228.63;;;18.22;46.30
64158;BME280;50449;51.528;5.076;2023-05-02T05:41:15;102237.94;;;18.21;46.32
64158;BME280;50449;51.528;5.076;2023-05-02T05:43:41;102237.94;;;18.21;46.50
64158;BME280;50449;51.528;5.076;2023-05-02T05:46:06;102242.56;;;18.20;46.25
64158;BME280;50449;51.528;5.076;2023-05-02T05:48:32;102246.13;;;18.21;46.38
64158;BME280;50449;51.528;5.076;2023-05-02T05:50:57;102246.13;;;18.21;46.15
64158;BME280;50449;51.528;5.076;2023-05-02T05:53:27;102242.56;;;18.20;46.48
64158;BME280;50449;51.528;5.076;2023-05-02T05:55:52;102250.22;;;18.18;46.35
64158;BME280;50449;51.528;5.076;2023-05-02T05:58:18;102247.47;;;18.18;45.97
64158;BME280;50449;51.528;5.076;2023-05-02T06:00:43;102254.03;;;18.17;46.37
64158;BME280;50449;51.528;5.076;2023-05-02T06:03:08;102259.50;;;18.17;46.30
64158;BME280;50449;51.528;5.076;2023-05-02T06:05:34;102264.13;;;18.16;46.11
64158;BME280;50449;51.528;5.076;2023-05-02T06:07:59;102266.84;;;18.16;46.23
64158;BME280;50449;51.528;5.076;2023-05-02T06:10:25;102261.38;;;18.16;46.10
64158;BME280;50449;51.528;5.076;2023-05-02T06:12:50;102272.34;;;18.16;46.25
64158;BME280;50449;51.528;5.076;2023-05-02T06:15:16;102282.22;;;18.17;45.97
64158;BME280;50449;51.528;5.076;2023-05-02T06:17:41;102279.47;;;18.17;46.15
64158;BME280;50449;51.528;5.076;2023-05-02T06:20:07;102272.91;;;18.19;46.18
64158;BME280;50449;51.528;5.076;2023-05-02T06:22:33;102287.69;;;18.17;45.72
64158;BME280;50449;51.528;5.076;2023-05-02T06:24:59;102286.00;;;18.16;45.96
64158;BME280;50449;51.528;5.076;2023-05-02T06:27:25;102293.97;;;18.18;45.96
64158;BME280;50449;51.528;5.076;2023-05-02T06:29:50;102296.69;;;18.18;45.81
64158;BME280;50449;51.528;5.076;2023-05-02T06:32:16;102298.63;;;18.17;45.98
64158;BME280;50449;51.528;5.076;2023-05-02T06:34:42;102304.91;;;18.18;45.98
64158;BME280;50449;51.528;5.076;2023-05-02T06:37:08;102312.00;;;18.19;46.16
64158;BME280;50449;51.528;5.076;2023-05-02T06:39:33;102316.44;;;18.20;45.66
64158;BME280;50449;51.528;5.076;2023-05-02T06:41:59;102315.59;;;18.20;46.01
64158;BME280;50449;51.528;5.076;2023-05-02T06:44:24;102316.44;;;18.20;45.92
64158;BME280;50449;51.528;5.076;2023-05-02T06:46:49;102320.78;;;18.21;46.04
64158;BME280;50449;51.528;5.076;2023-05-02T06:49:15;102327.09;;;18.22;45.97
64158;BME280;50449;51.528;5.076;2023-05-02T06:51:41;102327.66;;;18.24;45.96
64158;BME280;50449;51.528;5.076;2023-05-02T06:54:06;102328.47;;;18.24;46.33
64158;BME280;50449;51.528;5.076;2023-05-02T06:56:33;102329.88;;;18.27;46.12
64158;BME280;50449;51.528;5.076;2023-05-02T06:58:58;102333.47;;;18.27;46.42
64158;BME280;50449;51.528;5.076;2023-05-02T07:01:24;102334.53;;;18.26;46.28
64158;BME280;50449;51.528;5.076;2023-05-02T07:03:49;102343.84;;;18.25;46.21
64158;BME280;50449;51.528;5.076;2023-05-02T07:06:15;102354.50;;;18.27;46.19
64158;BME280;50449;51.528;5.076;2023-05-02T07:08:40;102352.63;;;18.27;46.06
64158;BME280;50449;51.528;5.076;2023-05-02T07:11:06;102365.19;;;18.28;46.54
64158;BME280;50449;51.528;5.076;2023-05-02T07:13:31;102364.09;;;18.29;45.89
64158;BME280;50449;51.528;5.076;2023-05-02T07:15:56;102364.97;;;18.30;46.23
64158;BME280;50449;51.528;5.076;2023-05-02T07:18:22;102363.88;;;18.31;46.36
64158;BME280;50449;51.528;5.076;2023-05-02T07:20:48;102374.56;;;18.32;46.64
64158;BME280;50449;51.528;5.076;2023-05-02T07:23:13;102375.13;;;18.34;46.43
64158;BME280;50449;51.528;5.076;2023-05-02T07:25:39;102377.59;;;18.36;46.26
64158;BME280;50449;51.528;5.076;2023-05-02T07:28:05;102372.13;;;18.36;46.29
64158;BME280;50449;51.528;5.076;2023-05-02T07:30:31;102369.97;;;18.38;46.54
64158;BME280;50449;51.528;5.076;2023-05-02T07:32:56;102382.56;;;18.39;46.20
64158;BME280;50449;51.528;5.076;2023-05-02T07:35:21;102378.75;;;18.40;46.19
64158;BME280;50449;51.528;5.076;2023-05-02T07:37:47;102378.75;;;18.40;46.59
64158;BME280;50449;51.528;5.076;2023-05-02T07:40:12;102381.50;;;18.40;46.40
64158;BME280;50449;51.528;5.076;2023-05-02T07:42:38;102391.63;;;18.40;46.34
64158;BME280;50449;51.528;5.076;2023-05-02T07:45:05;102384.22;;;18.40;46.59
64158;BME280;50449;51.528;5.076;2023-05-02T07:47:31;102396.56;;;18.43;46.70
64158;BME280;50449;51.528;5.076;2023-05-02T07:49:56;102393.56;;;18.44;46.34
64158;BME280;50449;51.528;5.076;2023-05-02T07:52:22;102400.69;;;18.45;46.35
64158;BME280;50449;51.528;5.076;2023-05-02T07:54:48;102401.75;;;18.44;46.70
64158;BME280;50449;51.528;5.076;2023-05-02T07:57:14;102400.69;;;18.45;46.77
64158;BME280;50449;51.528;5.076;2023-05-02T07:59:39;102400.69;;;18.45;46.20
64158;BME280;50449;51.528;5.076;2023-05-02T08:02:05;102408.63;;;18.47;46.64
64158;BME280;50449;51.528;5.076;2023-05-02T08:04:31;102402.91;;;18.48;46.34
64158;BME280;50449;51.528;5.076;2023-05-02T08:06:56;102403.75;;;18.49;46.54
64158;BME280;50449;51.528;5.076;2023-05-02T08:09:22;102408.41;;;18.48;46.73
64158;BME280;50449;51.528;5.076;2023-05-02T08:11:47;102401.81;;;18.49;46.68
64158;BME280;50449;51.528;5.076;2023-05-02T08:14:14;102407.63;;;18.53;46.32
64158;BME280;50449;51.528;5.076;2023-05-02T08:16:40;102421.31;;;18.53;46.28
64158;BME280;50449;51.528;5.076;2023-05-02T08:19:06;102417.25;;;18.55;46.28
64158;BME280;50449;51.528;5.076;2023-05-02T08:21:31;102424.13;;;18.58;46.68
64158;BME280;50449;51.528;5.076;2023-05-02T08:23:57;102416.72;;;18.58;46.30
64158;BME280;50449;51.528;5.076;2023-05-02T08:26:23;102424.41;;;18.62;46.64
64158;BME280;50449;51.528;5.076;2023-05-02T08:28:52;102423.91;;;18.65;46.30
64158;BME280;50449;51.528;5.076;2023-05-02T08:31:18;102426.38;;;18.66;46.05
64158;BME280;50449;51.528;5.076;2023-05-02T08:33:44;102438.72;;;18.69;46.33
64158;BME280;50449;51.528;5.076;2023-05-02T08:36:14;102440.13;;;18.71;46.09
64158;BME280;50449;51.528;5.076;2023-05-02T08:38:43;102442.34;;;18.74;46.53
64158;BME280;50449;51.528;5.076;2023-05-02T08:41:13;102449.25;;;18.77;46.29
64158;BME280;50449;51.528;5.076;2023-05-02T08:43:38;102448.78;;;18.80;45.80
64158;BME280;50449;51.528;5.076;2023-05-02T08:46:04;102449.59;;;18.80;46.07
64158;BME280;50449;51.528;5.076;2023-05-02T08:48:35;102456.19;;;18.85;46.01
64158;BME280;50449;51.528;5.076;2023-05-02T08:51:02;102458.69;;;18.86;46.35
64158;BME280;50449;51.528;5.076;2023-05-02T08:53:30;102466.94;;;18.91;46.12
64158;BME280;50449;51.528;5.076;2023-05-02T08:55:56;102466.44;;;18.94;45.98
64158;BME280;50449;51.528;5.076;2023-05-02T08:58:22;102461.53;;;18.96;45.89
64158;BME280;50449;51.528;5.076;2023-05-02T09:00:48;102462.91;;;18.99;45.87
64158;BME280;50449;51.528;5.076;2023-05-02T09:03:31;102463.25;;;19.02;46.48
64158;BME280;50449;51.528;5.076;2023-05-02T09:06:10;102463.78;;;19.05;46.31
64158;BME280;50449;51.528;5.076;2023-05-02T09:08:40;102464.13;;;19.08;46.58
64158;BME280;50449;51.528;5.076;2023-05-02T09:11:07;102475.13;;;19.13;46.24
64158;BME280;50449;51.528;5.076;2023-05-02T09:13:43;102482.00;;;19.16;46.47
64158;BME280;50449;51.528;5.076;2023-05-02T09:16:28;102480.38;;;19.20;46.20
64158;BME280;50449;51.528;5.076;2023-05-02T09:18:55;102480.72;;;19.23;46.46
64158;BME280;50449;51.528;5.076;2023-05-02T09:21:25;102483.75;;;19.27;46.33
64158;BME280;50449;51.528;5.076;2023-05-02T09:23:55;102487.88;;;19.30;46.46
64158;BME280;50449;51.528;5.076;2023-05-02T09:26:29;102491.19;;;19.32;46.66
64158;BME280;50449;51.528;5.076;2023-05-02T09:28:59;102489.84;;;19.34;46.74
64158;BME280;50449;51.528;5.076;2023-05-02T09:31:34;102493.75;;;19.38;46.72
64158;BME280;50449;51.528;5.076;2023-05-02T09:34:10;102496.53;;;19.43;46.26
64158;BME280;50449;51.528;5.076;2023-05-02T09:36:46;102490.53;;;19.46;46.42
64158;BME280;50449;51.528;5.076;2023-05-02T09:39:14;102494.41;;;19.51;46.41
64158;BME280;50449;51.528;5.076;2023-05-02T09:41:41;102495.81;;;19.53;46.56
64158;BME280;50449;51.528;5.076;2023-05-02T09:44:10;102489.50;;;19.58;46.57
64158;BME280;50449;51.528;5.076;2023-05-02T09:46:40;102499.97;;;19.61;46.29
64158;BME280;50449;51.528;5.076;2023-05-02T09:49:06;102504.69;;;19.65;46.38
64158;BME280;50449;51.528;5.076;2023-05-02T09:51:34;102501.44;;;19.69;46.20
64158;BME280;50449;51.528;5.076;2023-05-02T09:54:00;102515.44;;;19.72;46.35
64158;BME280;50449;51.528;5.076;2023-05-02T09:56:25;102519.31;;;19.76;46.21
64158;BME280;50449;51.528;5.076;2023-05-02T09:58:51;102519.63;;;19.80;46.13
64158;BME280;50449;51.528;5.076;2023-05-02T10:01:35;102527.88;;;19.85;46.66
64158;BME280;50449;51.528;5.076;2023-05-02T10:04:02;102525.72;;;19.87;46.75
64158;BME280;50449;51.528;5.076;2023-05-02T10:06:28;102515.88;;;19.91;46.42
64158;BME280;50449;51.528;5.076;2023-05-02T10:08:54;102513.19;;;19.96;46.17
64158;BME280;50449;51.528;5.076;2023-05-02T10:11:20;102509.09;;;19.99;46.63
64158;BME280;50449;51.528;5.076;2023-05-02T10:13:47;102506.91;;;20.01;46.71
64158;BME280;50449;51.528;5.076;2023-05-02T10:16:15;102512.69;;;20.04;46.68
64158;BME280;50449;51.528;5.076;2023-05-02T10:19:08;102505.28;;;20.05;46.12
64158;BME280;50449;51.528;5.076;2023-05-02T10:21:35;102514.66;;;20.09;46.46
64158;BME280;50449;51.528;5.076;2023-05-02T10:24:01;102509.72;;;20.11;46.13
64158;BME280;50449;51.528;5.076;2023-05-02T10:26:29;102520.41;;;20.13;46.03
64158;BME280;50449;51.528;5.076;2023-05-02T10:28:55;102513.84;;;20.14;46.10
64158;BME280;50449;51.528;5.076;2023-05-02T10:31:22;102516.88;;;20.17;46.13
64158;BME280;50449;51.528;5.076;2023-05-02T10:33:50;102519.91;;;20.21;46.04
64158;BME280;50449;51.528;5.076;2023-05-02T10:36:21;102519.66;;;20.22;46.42
64158;BME280;50449;51.528;5.076;2023-05-02T10:38:47;102514.75;;;20.24;46.27
64158;BME280;50449;51.528;5.076;2023-05-02T10:41:23;102507.06;;;20.26;45.15
64158;BME280;50449;51.528;5.076;2023-05-02T10:43:51;102510.09;;;20.30;45.78
64158;BME280;50449;51.528;5.076;2023-05-02T10:46:31;102503.53;;;20.31;44.74
64158;BME280;50449;51.528;5.076;2023-05-02T10:49:10;102504.06;;;20.33;45.53
64158;BME280;50449;51.528;5.076;2023-05-02T10:51:38;102512.88;;;20.35;45.62
64158;BME280;50449;51.528;5.076;2023-05-02T10:57:00;102524.69;;;20.41;45.19
64158;BME280;50449;51.528;5.076;2023-05-02T10:59:37;102528.28;;;20.41;45.36
64158;BME280;50449;51.528;5.076;2023-05-02T11:05:03;102525.59;;;20.46;45.62
64158;BME280;50449;51.528;5.076;2023-05-02T11:07:30;102535.19;;;20.49;45.19
64158;BME280;50449;51.528;5.076;2023-05-02T11:15:09;102532.78;;;20.58;45.45
64158;BME280;50449;51.528;5.076;2023-05-02T11:18:03;102532.25;;;20.61;45.45
64158;BME280;50449;51.528;5.076;2023-05-02T11:20:34;102539.13;;;20.63;45.47
64158;BME280;50449;51.528;5.076;2023-05-02T11:25:40;102544.13;;;20.66;45.28
64158;BME280;50449;51.528;5.076;2023-05-02T11:28:07;102537.25;;;20.69;45.26
64158;BME280;50449;51.528;5.076;2023-05-02T11:30:52;102538.66;;;20.71;45.09
64158;BME280;50449;51.528;5.076;2023-05-02T11:33:17;102540.03;;;20.74;45.60
64158;BME280;50449;51.528;5.076;2023-05-02T11:35:44;102532.31;;;20.76;45.71
64158;BME280;50449;51.528;5.076;2023-05-02T11:38:13;102535.91;;;20.77;45.35
64158;BME280;50449;51.528;5.076;2023-05-02T11:40:39;102536.44;;;20.79;45.70
64158;BME280;50449;51.528;5.076;2023-05-02T11:43:13;102531.28;;;20.82;45.48
64158;BME280;50449;51.528;5.076;2023-05-02T11:45:39;102534.56;;;20.84;45.54
64158;BME280;50449;51.528;5.076;2023-05-02T11:48:05;102531.28;;;20.87;45.43
64158;BME280;50449;51.528;5.076;2023-05-02T11:50:54;102528.25;;;20.89;45.46
64158;BME280;50449;51.528;5.076;2023-05-02T11:53:22;102528.56;;;20.92;45.34
64158;BME280;50449;51.528;5.076;2023-05-02T11:55:56;102525.53;;;20.94;45.33
64158;BME280;50449;51.528;5.076;2023-05-02T11:58:24;102538.19;;;20.95;45.05
64158;BME280;50449;51.528;5.076;2023-05-02T12:00:52;102537.94;;;20.96;45.24
64158;BME280;50449;51.528;5.076;2023-05-02T12:03:39;102536.56;;;20.99;45.15
64158;BME280;50449;51.528;5.076;2023-05-02T12:06:12;102540.94;;;21.00;45.04
64158;BME280;50449;51.528;5.076;2023-05-02T12:08:39;102547.81;;;21.03;44.86
64158;BME280;50449;51.528;5.076;2023-05-02T12:11:05;102555.81;;;21.04;44.87
64158;BME280;50449;51.528;5.076;2023-05-02T12:13:31;102559.09;;;21.06;45.09
64158;BME280;50449;51.528;5.076;2023-05-02T12:15:56;102555.81;;;21.09;45.04
64158;BME280;50449;51.528;5.076;2023-05-02T12:18:23;102562.13;;;21.10;45.18
64158;BME280;50449;51.528;5.076;2023-05-02T12:20:54;102559.66;;;21.13;45.07
64158;BME280;50449;51.528;5.076;2023-05-02T12:23:22;102572.31;;;21.14;45.32
64158;BME280;50449;51.528;5.076;2023-05-02T12:25:48;102566.28;;;21.17;45.13
64158;BME280;50449;51.528;5.076;2023-05-02T12:28:15;102568.75;;;21.19;45.04
64158;BME280;50449;51.528;5.076;2023-05-02T12:30:41;102565.75;;;21.21;45.25
64158;BME280;50449;51.528;5.076;2023-05-02T12:33:07;102556.94;;;21.24;45.00
64158;BME280;50449;51.528;5.076;2023-05-02T12:35:33;102561.06;;;21.26;44.86
64158;BME280;50449;51.528;5.076;2023-05-02T12:38:16;102570.16;;;21.27;44.60
64158;BME280;50449;51.528;5.076;2023-05-02T12:40:52;102571.00;;;21.27;44.80
64158;BME280;50449;51.528;5.076;2023-05-02T12:43:19;102574.00;;;21.31;44.91
64158;BME280;50449;51.528;5.076;2023-05-02T12:45:46;102572.66;;;21.33;44.72
64158;BME280;50449;51.528;5.076;2023-05-02T12:48:25;102580.63;;;21.35;44.37
64158;BME280;50449;51.528;5.076;2023-05-02T12:50:51;102583.94;;;21.37;44.28
64158;BME280;50449;51.528;5.076;2023-05-02T12:53:17;102580.94;;;21.38;44.01
64158;BME280;50449;51.528;5.076;2023-05-02T12:56:02;102582.31;;;21.41;44.04
64158;BME280;50449;51.528;5.076;2023-05-02T12:58:28;102581.75;;;21.44;44.51
64158;BME280;50449;51.528;5.076;2023-05-02T13:00:53;102588.38;;;21.48;43.97
64158;BME280;50449;51.528;5.076;2023-05-02T13:03:19;102582.06;;;21.53;44.15
64158;BME280;50449;51.528;5.076;2023-05-02T13:05:45;102599.66;;;21.57;44.06
64158;BME280;50449;51.528;5.076;2023-05-02T13:08:10;102593.66;;;21.60;43.86
64158;BME280;50449;51.528;5.076;2023-05-02T13:10:36;102590.91;;;21.65;44.00
64158;BME280;50449;51.528;5.076;2023-05-02T13:13:01;102588.16;;;21.70;43.94
64158;BME280;50449;51.528;5.076;2023-05-02T13:15:27;102582.94;;;21.74;44.18
64158;BME280;50449;51.528;5.076;2023-05-02T13:17:53;102585.69;;;21.79;43.70
64158;BME280;50449;51.528;5.076;2023-05-02T13:20:18;102593.38;;;21.82;44.10
64158;BME280;50449;51.528;5.076;2023-05-02T13:22:44;102590.09;;;21.85;43.58
64158;BME280;50449;51.528;5.076;2023-05-02T13:25:09;102578.53;;;21.88;43.68